createdAt,value
2022-11-27T00:01:26.102Z,28.07
2022-11-27T00:03:53.944Z,28.37
2022-11-27T00:06:22.869Z,28.37
2022-11-27T00:08:51.881Z,27.53
2022-11-27T00:11:23.101Z,27.30
2022-11-27T00:13:52.323Z,28.10
2022-11-27T00:16:19.942Z,26.30
2022-11-27T00:18:46.948Z,28.93
2022-11-27T00:21:26.680Z,27.03
2022-11-27T00:23:54.002Z,29.73
2022-11-27T00:26:23.194Z,27.30
2022-11-27T00:28:54.495Z,27.53
2022-11-27T00:31:27.192Z,27.67
2022-11-27T00:34:00.400Z,29.13
2022-11-27T00:36:28.011Z,28.40
2022-11-27T00:38:54.714Z,29.53
2022-11-27T00:41:23.201Z,28.73
2022-11-27T00:43:52.516Z,28.47
2022-11-27T00:46:28.332Z,30.30
2022-11-27T00:48:56.364Z,30.60
2022-11-27T00:51:23.355Z,29.77
2022-11-27T00:53:50.079Z,30.57
2022-11-27T00:56:20.886Z,28.63
2022-11-27T00:58:47.704Z,29.40
2022-11-27T01:01:22.433Z,31.03
2022-11-27T01:03:49.242Z,30.33
2022-11-27T01:06:19.234Z,31.73
2022-11-27T01:08:48.803Z,32.77
2022-11-27T01:11:17.363Z,33.53
2022-11-27T01:13:44.294Z,31.83
2022-11-27T01:16:13.308Z,33.03
2022-11-27T01:18:43.342Z,32.97
2022-11-27T01:21:10.431Z,32.27
2022-11-27T01:23:37.199Z,34.50
2022-11-27T01:26:06.099Z,33.93
2022-11-27T01:28:33.331Z,36.30
2022-11-27T01:31:04.968Z,36.20
2022-11-27T01:33:31.758Z,34.47
2022-11-27T01:36:02.518Z,35.77
2022-11-27T01:38:32.422Z,34.93
2022-11-27T01:41:00.464Z,35.10
2022-11-27T01:43:42.330Z,34.47
2022-11-27T01:46:42.687Z,35.73
2022-11-27T01:49:12.470Z,37.60
2022-11-27T01:52:11.568Z,36.37
2022-11-27T01:54:47.364Z,37.70
2022-11-27T01:57:17.065Z,35.60
2022-11-27T01:59:43.999Z,37.83
2022-11-27T02:02:10.809Z,36.20
2022-11-27T02:04:37.753Z,36.93
2022-11-27T02:07:04.597Z,36.37
2022-11-27T02:09:31.383Z,36.30
2022-11-27T02:12:25.151Z,37.57
2022-11-27T02:15:03.264Z,37.07
2022-11-27T02:17:45.162Z,38.07
2022-11-27T02:20:59.119Z,38.00
2022-11-27T02:23:55.602Z,39.80
2022-11-27T02:26:42.931Z,40.53
2022-11-27T02:29:12.710Z,40.83
2022-11-27T02:32:01.038Z,41.07
2022-11-27T02:34:28.491Z,41.37
2022-11-27T02:37:00.662Z,43.33
2022-11-27T02:39:32.413Z,41.77
2022-11-27T02:42:11.882Z,41.80
2022-11-27T02:44:41.880Z,40.73
2022-11-27T02:47:08.785Z,41.60
2022-11-27T02:49:36.146Z,42.23
2022-11-27T02:52:05.014Z,42.00
2022-11-27T02:54:33.941Z,41.27
2022-11-27T02:57:04.517Z,42.17
2022-11-27T02:59:31.744Z,42.00
2022-11-27T03:02:01.941Z,41.37
2022-11-27T03:04:34.553Z,41.40
2022-11-27T03:07:06.921Z,41.77
2022-11-27T03:09:40.347Z,42.17
2022-11-27T03:12:09.718Z,40.73
2022-11-27T03:14:38.893Z,41.53
2022-11-27T03:17:11.152Z,41.67
2022-11-27T03:19:46.116Z,41.17
2022-11-27T03:22:12.843Z,42.53
2022-11-27T03:24:41.977Z,40.33
2022-11-27T03:27:11.390Z,41.70
2022-11-27T03:29:58.885Z,40.87
2022-11-27T03:32:26.542Z,39.97
2022-11-27T03:34:55.790Z,40.70
2022-11-27T03:37:22.667Z,40.63
2022-11-27T03:39:49.626Z,43.83
2022-11-27T03:42:31.883Z,43.40
2022-11-27T03:45:08.619Z,43.53
2022-11-27T03:47:48.831Z,44.43
2022-11-27T03:50:42.424Z,43.77
2022-11-27T03:53:27.948Z,44.33
2022-11-27T03:56:37.578Z,44.83
2022-11-27T03:59:20.624Z,42.73
2022-11-27T04:01:47.651Z,44.50
2022-11-27T04:04:14.597Z,44.83
2022-11-27T04:06:41.388Z,44.53
2022-11-27T04:09:12.777Z,43.03
2022-11-27T04:11:39.469Z,46.40
2022-11-27T04:14:08.221Z,44.77
2022-11-27T04:16:37.143Z,43.00
2022-11-27T04:19:04.278Z,43.50
2022-11-27T04:21:33.456Z,44.57
2022-11-27T04:24:02.625Z,44.00
2022-11-27T04:26:31.489Z,42.80
2022-11-27T04:28:58.175Z,42.73
2022-11-27T04:31:24.981Z,44.90
2022-11-27T04:33:51.726Z,43.77
2022-11-27T04:36:18.445Z,42.50
2022-11-27T04:38:47.932Z,42.03
2022-11-27T04:41:14.640Z,41.40
2022-11-27T04:43:41.371Z,41.13
2022-11-27T04:46:08.132Z,41.03
2022-11-27T04:48:34.905Z,39.80
2022-11-27T04:51:01.640Z,39.47
2022-11-27T04:53:28.333Z,40.30
2022-11-27T04:55:57.296Z,39.47
2022-11-27T04:58:26.568Z,37.33
2022-11-27T05:00:53.399Z,37.77
2022-11-27T05:03:20.247Z,40.23
2022-11-27T05:05:56.678Z,39.47
2022-11-27T05:08:24.256Z,38.47
2022-11-27T05:11:03.834Z,38.23
2022-11-27T05:13:30.747Z,40.03
2022-11-27T05:15:59.815Z,37.13
2022-11-27T05:18:26.602Z,38.33
2022-11-27T05:21:17.411Z,38.70
2022-11-27T05:23:44.110Z,38.57
2022-11-27T05:26:13.142Z,37.77
2022-11-27T05:28:42.001Z,38.07
2022-11-27T05:31:09.114Z,38.20
2022-11-27T05:33:35.866Z,37.07
2022-11-27T05:36:02.554Z,38.83
2022-11-27T05:38:29.277Z,39.73
2022-11-27T05:40:55.963Z,38.30
2022-11-27T05:43:27.403Z,37.67
2022-11-27T05:45:54.108Z,37.27
2022-11-27T05:48:23.002Z,38.00
2022-11-27T05:50:49.737Z,38.23
2022-11-27T05:53:16.424Z,39.93
2022-11-27T05:55:43.186Z,39.70
2022-11-27T05:58:09.899Z,38.93
2022-11-27T06:00:36.667Z,39.50
2022-11-27T06:03:07.819Z,38.97
2022-11-27T06:05:38.118Z,39.23
2022-11-27T06:08:04.848Z,41.53
2022-11-27T06:10:31.529Z,39.77
2022-11-27T06:12:58.233Z,41.17
2022-11-27T06:15:24.998Z,42.40
2022-11-27T06:17:51.768Z,42.53
2022-11-27T06:20:20.300Z,40.67
2022-11-27T06:22:47.108Z,43.30
2022-11-27T06:25:18.526Z,44.30
2022-11-27T06:27:47.442Z,43.87
2022-11-27T06:30:14.367Z,43.10
2022-11-27T06:32:43.590Z,44.70
2022-11-27T06:35:12.680Z,42.40
2022-11-27T06:37:44.273Z,45.07
2022-11-27T06:40:13.559Z,43.87
2022-11-27T06:42:40.282Z,43.80
2022-11-27T06:45:07.572Z,42.07
2022-11-27T06:47:34.290Z,42.30
2022-11-27T06:50:01.021Z,42.43
2022-11-27T06:52:35.885Z,40.70
2022-11-27T06:55:07.173Z,41.63
2022-11-27T06:57:33.910Z,41.93
2022-11-27T07:00:00.598Z,43.00
2022-11-27T07:02:27.389Z,41.07
2022-11-27T07:04:54.224Z,42.70
2022-11-27T07:07:21.018Z,39.87
2022-11-27T07:09:47.813Z,41.93
2022-11-27T07:12:16.688Z,40.47
2022-11-27T07:14:43.482Z,40.67
2022-11-27T07:17:12.648Z,39.53
2022-11-27T07:19:41.613Z,41.23
2022-11-27T07:22:10.938Z,39.80
2022-11-27T07:24:40.122Z,39.87
2022-11-27T07:27:07.177Z,38.77
2022-11-27T07:29:33.883Z,39.57
2022-11-27T07:32:00.651Z,37.43
2022-11-27T07:34:29.835Z,38.30
2022-11-27T07:36:58.997Z,38.47
2022-11-27T07:39:46.626Z,37.77
2022-11-27T07:42:36.874Z,39.20
2022-11-27T07:45:01.389Z,39.07
2022-11-27T07:47:31.820Z,38.27
2022-11-27T07:50:00.395Z,37.73
2022-11-27T07:52:27.433Z,37.30
2022-11-27T07:54:56.414Z,38.50
2022-11-27T07:57:23.102Z,38.53
2022-11-27T07:59:49.826Z,37.53
2022-11-27T08:02:16.645Z,37.53
2022-11-27T08:04:43.835Z,38.47
2022-11-27T08:07:10.924Z,36.73
2022-11-27T08:09:38.067Z,36.83
2022-11-27T08:12:05.024Z,39.10
2022-11-27T08:14:31.729Z,39.20
2022-11-27T08:16:58.461Z,38.60
2022-11-27T08:19:25.241Z,39.90
2022-11-27T08:21:54.193Z,38.83
2022-11-27T08:24:20.892Z,38.37
2022-11-27T08:26:47.582Z,38.80
2022-11-27T08:29:16.569Z,38.40
2022-11-27T08:31:43.338Z,40.73
2022-11-27T08:34:12.512Z,38.97
2022-11-27T08:36:39.197Z,40.37
2022-11-27T08:39:06.168Z,39.53
2022-11-27T08:41:32.933Z,40.37
2022-11-27T08:44:04.481Z,39.43
2022-11-27T08:46:33.482Z,39.03
2022-11-27T08:49:02.437Z,39.87
2022-11-27T08:51:31.317Z,41.10
2022-11-27T08:53:58.045Z,41.53
2022-11-27T08:56:27.405Z,39.37
2022-11-27T08:58:54.122Z,39.60
2022-11-27T09:01:31.171Z,39.17
2022-11-27T09:04:00.097Z,39.53
2022-11-27T09:06:33.276Z,39.40
2022-11-27T09:09:00.732Z,40.83
2022-11-27T09:11:27.955Z,41.40
2022-11-27T09:13:56.948Z,39.23
2022-11-27T09:16:23.673Z,41.03
2022-11-27T09:18:54.215Z,41.60
2022-11-27T09:21:22.189Z,40.70
2022-11-27T09:23:54.141Z,39.57
2022-11-27T09:26:20.946Z,39.53
2022-11-27T09:28:47.948Z,37.70
2022-11-27T09:31:15.094Z,39.37
2022-11-27T09:33:44.507Z,38.43
2022-11-27T09:36:24.725Z,37.97
2022-11-27T09:38:51.776Z,38.73
2022-11-27T09:41:43.568Z,38.50
2022-11-27T09:44:18.176Z,39.13
2022-11-27T09:46:45.374Z,38.20
2022-11-27T09:49:20.050Z,38.63
2022-11-27T09:52:11.917Z,39.10
2022-11-27T09:55:03.282Z,40.37
2022-11-27T09:57:33.102Z,40.77
2022-11-27T10:00:28.016Z,39.97
2022-11-27T10:02:54.849Z,39.30
2022-11-27T10:05:31.080Z,42.13
2022-11-27T10:08:08.088Z,41.17
2022-11-27T10:10:57.084Z,40.47
2022-11-27T10:13:50.257Z,40.03
2022-11-27T10:16:28.879Z,40.80
2022-11-27T10:19:14.722Z,40.33
2022-11-27T10:21:47.134Z,39.87
2022-11-27T10:24:16.668Z,41.23
2022-11-27T10:26:47.741Z,41.40
2022-11-27T10:29:33.203Z,41.03
2022-11-27T10:32:05.446Z,41.50
2022-11-27T10:34:32.264Z,40.50
2022-11-27T10:36:59.008Z,40.53
2022-11-27T10:39:32.443Z,40.60
2022-11-27T10:42:10.296Z,39.27
2022-11-27T10:44:45.072Z,42.23
2022-11-27T10:47:14.651Z,41.70
2022-11-27T10:49:41.884Z,41.77
2022-11-27T10:52:16.123Z,40.40
2022-11-27T10:54:45.280Z,39.63
2022-11-27T10:57:33.926Z,39.07
2022-11-27T11:00:20.448Z,41.13
2022-11-27T11:02:47.308Z,41.43
2022-11-27T11:05:37.717Z,41.73
2022-11-27T11:08:18.110Z,38.43
2022-11-27T11:10:51.788Z,39.43
2022-11-27T11:13:27.321Z,39.97
2022-11-27T11:15:56.233Z,38.33
2022-11-27T11:18:46.510Z,38.63
2022-11-27T11:21:15.744Z,37.83
2022-11-27T11:23:42.534Z,39.43
2022-11-27T11:26:21.682Z,37.37
2022-11-27T11:28:53.354Z,38.17
2022-11-27T11:31:29.025Z,37.30
2022-11-27T11:34:02.348Z,36.80
2022-11-27T11:36:29.150Z,38.03
2022-11-27T11:38:58.045Z,39.33
2022-11-27T11:41:26.959Z,36.97
2022-11-27T11:43:58.759Z,39.33
2022-11-27T11:46:28.646Z,40.00
2022-11-27T11:49:18.520Z,36.87
2022-11-27T11:52:16.684Z,38.10
2022-11-27T11:54:49.603Z,39.63
2022-11-27T11:57:38.844Z,37.77
2022-11-27T12:00:10.884Z,37.87
2022-11-27T12:02:45.869Z,38.03
2022-11-27T12:05:27.762Z,37.97
2022-11-27T12:08:22.598Z,37.30
2022-11-27T12:11:03.988Z,36.77
2022-11-27T12:13:33.479Z,36.77
2022-11-27T12:16:07.642Z,36.30
2022-11-27T12:19:01.569Z,36.73
2022-11-27T12:21:53.659Z,38.07
2022-11-27T12:24:44.729Z,37.50
2022-11-27T12:27:29.149Z,38.47
2022-11-27T12:30:12.198Z,38.63
2022-11-27T12:33:12.348Z,38.10
2022-11-27T12:35:48.210Z,37.13
2022-11-27T12:38:28.076Z,37.27
2022-11-27T12:41:13.735Z,34.93
2022-11-27T12:43:52.067Z,37.07
2022-11-27T12:46:24.150Z,36.43
2022-11-27T12:49:00.166Z,35.03
2022-11-27T12:51:34.476Z,36.93
2022-11-27T12:54:05.898Z,36.20
2022-11-27T12:56:36.648Z,35.37
2022-11-27T12:59:19.166Z,35.03
2022-11-27T13:01:50.122Z,35.50
2022-11-27T13:04:20.105Z,34.67
2022-11-27T13:07:10.994Z,35.97
2022-11-27T13:09:57.012Z,35.30
2022-11-27T13:12:32.910Z,35.67
2022-11-27T13:15:05.706Z,36.27
2022-11-27T13:17:41.283Z,35.63
2022-11-27T13:20:19.661Z,35.93
2022-11-27T13:22:46.343Z,34.90
2022-11-27T13:25:18.367Z,33.90
2022-11-27T13:27:46.664Z,34.10
2022-11-27T13:30:22.342Z,36.10
2022-11-27T13:32:51.290Z,34.40
2022-11-27T13:35:39.983Z,34.80
2022-11-27T13:38:22.341Z,34.27
2022-11-27T13:40:56.008Z,33.60
2022-11-27T13:43:32.559Z,35.30
2022-11-27T13:46:11.971Z,32.67
2022-11-27T13:48:42.356Z,31.83
2022-11-27T13:51:10.124Z,32.70
2022-11-27T13:53:38.702Z,32.80
2022-11-27T13:56:06.049Z,32.47
2022-11-27T13:58:39.383Z,33.53
2022-11-27T14:01:16.640Z,32.77
2022-11-27T14:03:43.459Z,33.97
2022-11-27T14:06:20.846Z,32.77
2022-11-27T14:09:01.491Z,33.20
2022-11-27T14:11:42.994Z,34.70
2022-11-27T14:14:21.379Z,35.03
2022-11-27T14:17:04.913Z,33.40
2022-11-27T14:19:34.729Z,34.70
2022-11-27T14:22:02.305Z,33.30
2022-11-27T14:24:41.612Z,34.23
2022-11-27T14:27:18.381Z,33.87
2022-11-27T14:29:47.275Z,31.97
2022-11-27T14:32:17.563Z,32.57
2022-11-27T14:34:44.469Z,33.13
2022-11-27T14:37:29.930Z,32.47
2022-11-27T14:39:56.676Z,33.00
2022-11-27T14:42:29.499Z,33.53
2022-11-27T14:45:05.263Z,33.27
2022-11-27T14:47:31.957Z,35.10
2022-11-27T14:49:58.641Z,33.60
2022-11-27T14:52:25.401Z,34.40
2022-11-27T14:54:52.148Z,33.47
2022-11-27T14:57:28.540Z,33.10
2022-11-27T15:00:14.982Z,34.00
2022-11-27T15:02:41.896Z,35.93
2022-11-27T15:05:20.053Z,34.87
2022-11-27T15:07:53.197Z,34.33
2022-11-27T15:10:35.928Z,33.80
2022-11-27T15:13:03.267Z,34.03
2022-11-27T15:15:39.836Z,34.87
2022-11-27T15:18:09.193Z,33.47
2022-11-27T15:20:43.537Z,34.73
2022-11-27T15:23:32.206Z,35.60
2022-11-27T15:26:02.133Z,34.67
2022-11-27T15:28:37.023Z,34.90
2022-11-27T15:31:25.027Z,34.73
2022-11-27T15:34:01.781Z,34.50
2022-11-27T15:36:34.843Z,35.90
2022-11-27T15:39:24.758Z,35.27
2022-11-27T15:42:01.653Z,35.60
2022-11-27T15:44:32.831Z,33.27
2022-11-27T15:47:03.237Z,33.37
2022-11-27T15:49:30.044Z,35.30
2022-11-27T15:51:57.049Z,36.23
2022-11-27T15:54:24.239Z,33.33
2022-11-27T15:56:51.114Z,33.27
2022-11-27T15:59:20.481Z,36.03
2022-11-27T16:01:52.737Z,35.70
2022-11-27T16:04:19.576Z,34.80
2022-11-27T16:06:46.352Z,33.57
2022-11-27T16:09:13.177Z,36.30
2022-11-27T16:11:40.002Z,34.10
2022-11-27T16:14:08.919Z,34.57
2022-11-27T16:16:35.823Z,35.70
2022-11-27T16:19:03.951Z,36.40
2022-11-27T16:21:35.607Z,36.33
2022-11-27T16:24:04.156Z,36.47
2022-11-27T16:26:31.109Z,35.67
2022-11-27T16:28:58.100Z,38.50
2022-11-27T16:31:27.154Z,37.97
2022-11-27T16:33:54.102Z,35.97
2022-11-27T16:36:22.891Z,36.40
2022-11-27T16:38:51.221Z,36.80
2022-11-27T16:41:18.480Z,37.93
2022-11-27T16:43:49.115Z,36.77
2022-11-27T16:46:18.179Z,35.23
2022-11-27T16:48:45.210Z,38.63
2022-11-27T16:51:19.639Z,36.57
2022-11-27T16:53:47.429Z,37.80
2022-11-27T16:56:16.031Z,37.83
2022-11-27T16:58:45.916Z,37.57
2022-11-27T17:01:17.875Z,36.57
2022-11-27T17:03:44.668Z,36.23
2022-11-27T17:06:15.446Z,38.80
2022-11-27T17:08:44.382Z,38.10
2022-11-27T17:11:18.107Z,38.03
2022-11-27T17:13:45.647Z,37.13
2022-11-27T17:16:12.424Z,37.03
2022-11-27T17:18:40.071Z,36.90
2022-11-27T17:21:29.239Z,38.07
2022-11-27T17:24:03.862Z,38.77
2022-11-27T17:26:42.236Z,38.53
2022-11-27T17:29:10.199Z,39.37
2022-11-27T17:31:42.003Z,40.57
2022-11-27T17:34:11.104Z,39.60
2022-11-27T17:36:42.141Z,39.63
2022-11-27T17:39:09.819Z,41.13
2022-11-27T17:41:36.665Z,40.13
2022-11-27T17:44:06.380Z,39.03
2022-11-27T17:46:36.959Z,40.17
2022-11-27T17:49:07.191Z,40.47
2022-11-27T17:51:38.552Z,41.70
2022-11-27T17:54:07.875Z,40.17
2022-11-27T17:56:34.707Z,40.97
2022-11-27T17:59:01.518Z,41.67
2022-11-27T18:01:29.376Z,42.60
2022-11-27T18:03:57.191Z,41.53
2022-11-27T18:06:29.977Z,41.70
2022-11-27T18:08:58.136Z,41.00
2022-11-27T18:11:26.662Z,42.57
2022-11-27T18:13:53.468Z,41.47
2022-11-27T18:16:25.318Z,43.53
2022-11-27T18:18:52.276Z,42.87
2022-11-27T18:21:20.016Z,43.13
2022-11-27T18:24:21.329Z,42.63
2022-11-27T18:27:00.393Z,44.70
2022-11-27T18:29:21.298Z,44.67
2022-11-27T18:31:51.114Z,44.43
2022-11-27T18:34:18.386Z,44.63
2022-11-27T18:36:45.946Z,45.50
2022-11-27T18:39:15.885Z,46.47
2022-11-27T18:41:45.241Z,46.23
2022-11-27T18:44:12.035Z,46.57
2022-11-27T18:46:41.490Z,45.67
2022-11-27T18:49:08.263Z,45.83
2022-11-27T18:51:35.018Z,45.93
2022-11-27T18:54:01.717Z,47.40
2022-11-27T18:56:34.007Z,47.00
2022-11-27T18:59:07.038Z,45.83
2022-11-27T19:01:39.917Z,46.03
2022-11-27T19:04:11.206Z,47.37
2022-11-27T19:06:38.822Z,48.67
2022-11-27T19:09:05.693Z,46.10
2022-11-27T19:11:33.996Z,46.40
2022-11-27T19:14:00.993Z,46.50
2022-11-27T19:16:42.023Z,44.40
2022-11-27T19:19:49.314Z,45.27
2022-11-27T19:21:58.650Z,47.20
2022-11-27T19:24:25.370Z,45.60
2022-11-27T19:26:52.167Z,44.83
2022-11-27T19:29:21.199Z,45.90
2022-11-27T19:31:48.128Z,44.63
2022-11-27T19:34:14.946Z,45.53
2022-11-27T19:36:41.689Z,45.97
2022-11-27T19:39:14.103Z,47.00
2022-11-27T19:41:41.478Z,46.70
2022-11-27T19:44:08.247Z,45.20
2022-11-27T19:46:36.335Z,46.30
2022-11-27T19:49:04.961Z,44.20
2022-11-27T19:51:33.287Z,45.43
2022-11-27T19:54:08.399Z,42.67
2022-11-27T19:56:40.112Z,44.83
2022-11-27T19:59:07.221Z,44.03
2022-11-27T20:01:33.998Z,43.87
2022-11-27T20:04:02.060Z,43.40
2022-11-27T20:06:31.283Z,42.40
2022-11-27T20:09:04.089Z,43.13
2022-11-27T20:11:35.423Z,43.60
2022-11-27T20:14:04.143Z,43.07
2022-11-27T20:16:31.317Z,43.13
2022-11-27T20:18:58.159Z,44.07
2022-11-27T20:21:34.026Z,42.37
2022-11-27T20:24:05.887Z,43.50
2022-11-27T20:26:41.270Z,42.23
2022-11-27T20:29:11.860Z,44.50
2022-11-27T20:31:40.242Z,43.67
2022-11-27T20:34:10.857Z,43.20
2022-11-27T20:36:38.942Z,44.67
2022-11-27T20:39:08.285Z,47.87
2022-11-27T20:41:35.005Z,46.63
2022-11-27T20:44:04.841Z,47.30
2022-11-27T20:46:34.141Z,47.80
2022-11-27T20:49:03.240Z,48.20
2022-11-27T20:51:33.334Z,48.97
2022-11-27T20:54:01.728Z,47.27
2022-11-27T20:56:29.143Z,48.50
2022-11-27T20:59:00.806Z,46.90
2022-11-27T21:01:32.146Z,48.60
2022-11-27T21:04:00.394Z,49.33
2022-11-27T21:06:28.881Z,49.27
2022-11-27T21:08:55.716Z,47.80
2022-11-27T21:11:25.278Z,50.97
2022-11-27T21:13:56.249Z,49.67
2022-11-27T21:16:23.899Z,52.77
2022-11-27T21:18:54.540Z,50.50
2022-11-27T21:21:21.310Z,50.10
2022-11-27T21:23:50.243Z,49.20
2022-11-27T21:26:17.123Z,50.43
2022-11-27T21:28:44.152Z,51.03
2022-11-27T21:31:18.108Z,51.07
2022-11-27T21:33:58.113Z,50.37
2022-11-27T21:36:29.366Z,48.73
2022-11-27T21:38:57.518Z,51.57
2022-11-27T21:41:26.588Z,51.33
2022-11-27T21:43:57.923Z,51.37
2022-11-27T21:46:25.023Z,54.30
2022-11-27T21:48:52.935Z,58.00
2022-11-27T21:51:23.104Z,57.03
2022-11-27T21:53:51.456Z,58.47
2022-11-27T21:56:19.302Z,56.27
2022-11-27T21:58:46.317Z,54.53
2022-11-27T22:01:15.610Z,54.13
2022-11-27T22:03:43.124Z,52.00
2022-11-27T22:06:14.661Z,52.60
2022-11-27T22:08:42.527Z,53.10
2022-11-27T22:11:10.443Z,54.13
2022-11-27T22:13:37.158Z,51.80
2022-11-27T22:16:20.375Z,51.10
2022-11-27T22:18:49.553Z,53.40
2022-11-27T22:21:16.546Z,52.00
2022-11-27T22:23:43.247Z,51.87
2022-11-27T22:26:14.253Z,53.17
2022-11-27T22:28:41.164Z,54.03
2022-11-27T22:31:18.689Z,54.00
2022-11-27T22:33:45.847Z,52.77
2022-11-27T22:36:19.303Z,54.63
2022-11-27T22:38:46.711Z,53.63
2022-11-27T22:41:13.614Z,55.57
2022-11-27T22:43:40.464Z,54.47
2022-11-27T22:46:12.485Z,53.93
2022-11-27T22:48:39.231Z,52.10
2022-11-27T22:51:06.211Z,52.13
2022-11-27T22:53:35.411Z,54.93
2022-11-27T22:56:11.976Z,53.20
2022-11-27T22:58:42.028Z,51.23
2022-11-27T23:01:29.134Z,52.73
2022-11-27T23:03:55.937Z,54.43
2022-11-27T23:06:25.400Z,52.60
2022-11-27T23:08:54.645Z,54.20
2022-11-27T23:11:24.014Z,53.23
2022-11-27T23:13:51.654Z,53.10
2022-11-27T23:16:18.439Z,52.73
2022-11-27T23:18:45.478Z,52.20
2022-11-27T23:21:15.757Z,53.20
2022-11-27T23:23:45.479Z,51.37
2022-11-27T23:26:19.359Z,50.83
2022-11-27T23:28:49.319Z,51.50
2022-11-27T23:31:31.051Z,51.73
2022-11-27T23:33:58.902Z,54.23
2022-11-27T23:36:25.848Z,53.23
2022-11-27T23:38:52.603Z,54.07
2022-11-27T23:41:21.192Z,52.90
2022-11-27T23:43:50.371Z,54.27
2022-11-27T23:46:18.197Z,53.73
2022-11-27T23:48:45.045Z,54.70
2022-11-27T23:51:16.508Z,54.43
2022-11-27T23:53:45.431Z,53.30
2022-11-27T23:56:14.182Z,53.80
2022-11-27T23:58:46.914Z,53.57
